Time;durP1;ratioP1;P1;durP2;ratioP2;P2;SDS_P1;SDS_P2;PMS_P1;PMS_P2;Temp;Humidity;BMP_temperature;BMP_pressure;BME280_temperature;BME280_humidity;BME280_pressure;Samples;Min_cycle;Max_cycle;Signal;HPM_P1;HPM_P2
2022/09/02 00:02:09;;;;;;;14.73;11.98;;;28.30;99.90;;;;;;4208579;28;20399;-75
2022/09/02 00:04:20;;;;;;;15.38;11.70;;;28.30;99.90;;;;;;4208630;28;20058;-72
2022/09/02 00:06:41;;;;;;;15.18;12.32;;;28.20;99.90;;;;;;4208296;28;20075;-73
2022/09/02 00:09:07;;;;;;;19.60;15.30;;;28.40;99.90;;;;;;4207280;28;20431;-73
2022/09/02 00:11:16;;;;;;;22.85;14.15;;;28.60;99.90;;;;;;4208678;28;20780;-73
2022/09/02 00:13:22;;;;;;;15.98;12.98;;;28.60;99.90;;;;;;4207120;28;20036;-73
2022/09/02 00:15:30;;;;;;;15.00;12.50;;;28.70;99.90;;;;;;4203045;28;20053;-73
2022/09/02 00:17:43;;;;;;;16.33;12.25;;;28.60;99.90;;;;;;4191603;28;20047;-73
2022/09/02 00:19:56;;;;;;;16.65;13.35;;;28.60;99.90;;;;;;4191705;28;20049;-73
2022/09/02 00:22:03;;;;;;;19.05;13.52;;;28.60;99.90;;;;;;4191388;28;20045;-74
2022/09/02 00:24:10;;;;;;;14.80;11.38;;;28.70;99.90;;;;;;4191350;28;20083;-74
2022/09/02 00:26:16;;;;;;;14.20;10.50;;;28.80;99.90;;;;;;4205701;28;20082;-74
2022/09/02 00:28:23;;;;;;;16.38;11.93;;;28.90;99.90;;;;;;4203394;28;20488;-74
2022/09/02 00:30:29;;;;;;;15.95;11.45;;;28.90;99.90;;;;;;4189663;28;20056;-74
2022/09/02 00:32:34;;;;;;;13.82;10.57;;;29.00;99.90;;;;;;4191717;28;20084;-73
2022/09/02 00:34:40;;;;;;;12.55;10.35;;;29.20;99.90;;;;;;4191723;28;20084;-74
2022/09/02 00:36:48;;;;;;;12.43;9.40;;;29.30;99.90;;;;;;4191507;28;21024;-73
2022/09/02 00:38:53;;;;;;;14.10;9.40;;;29.40;99.90;;;;;;4194379;28;20047;-74
2022/09/02 00:41:18;;;;;;;10.93;8.82;;;29.40;99.90;;;;;;4207440;28;20052;-74
2022/09/02 00:44:01;;;;;;;11.23;8.52;;;29.60;99.90;;;;;;4206866;28;20044;-75
2022/09/02 00:46:08;;;;;;;8.80;7.90;;;29.70;99.90;;;;;;4207907;28;20056;-75
2022/09/02 00:48:14;;;;;;;10.15;7.55;;;29.70;99.90;;;;;;4206648;28;20122;-74
2022/09/02 00:50:26;;;;;;;10.63;7.80;;;29.70;99.90;;;;;;4207907;28;20052;-75
2022/09/02 00:52:37;;;;;;;9.27;6.95;;;29.80;99.90;;;;;;4206728;28;20484;-74
2022/09/02 00:55:10;;;;;;;11.10;7.85;;;29.90;99.90;;;;;;4206677;28;20497;-75
2022/09/02 00:57:18;;;;;;;10.77;8.13;;;30.00;99.90;;;;;;4207908;28;20079;-74
2022/09/02 00:59:28;;;;;;;14.88;8.20;;;29.90;99.90;;;;;;4196305;28;20192;-74
2022/09/02 01:01:33;;;;;;;9.68;7.85;;;29.90;99.90;;;;;;4192673;28;20044;-75
2022/09/02 01:03:43;;;;;;;10.45;7.90;;;29.80;99.90;;;;;;4193906;28;20052;-76
2022/09/02 01:05:51;;;;;;;9.63;7.93;;;29.90;99.90;;;;;;4194315;28;20048;-74
2022/09/02 01:07:57;;;;;;;12.32;7.85;;;29.80;99.90;;;;;;4192261;28;20056;-73
2022/09/02 01:10:24;;;;;;;13.43;7.60;;;29.80;99.90;;;;;;4208903;28;20089;-73
2022/09/02 01:12:31;;;;;;;9.68;7.55;;;29.80;99.90;;;;;;4210795;28;20419;-73
2022/09/02 01:14:37;;;;;;;9.45;7.25;;;30.00;99.90;;;;;;4224966;28;20056;-74
2022/09/02 01:16:52;;;;;;;7.85;6.68;;;30.10;99.90;;;;;;4210202;28;20105;-74
2022/09/02 01:19:06;;;;;;;8.63;6.50;;;30.20;99.90;;;;;;4224679;28;20080;-75
2022/09/02 01:21:14;;;;;;;10.43;7.43;;;30.20;99.90;;;;;;4209014;28;20130;-75
2022/09/02 01:23:21;;;;;;;9.32;6.88;;;30.20;99.90;;;;;;4210281;28;20040;-74
2022/09/02 01:25:31;;;;;;;8.40;7.35;;;30.30;99.90;;;;;;4202485;28;20057;-74
2022/09/02 01:27:37;;;;;;;10.18;6.43;;;30.30;99.90;;;;;;4194007;28;20044;-74
2022/09/02 01:29:49;;;;;;;9.98;6.18;;;30.40;99.90;;;;;;4194163;28;20056;-74
2022/09/02 01:31:56;;;;;;;12.20;6.15;;;30.50;99.90;;;;;;4193848;28;20063;-72
2022/09/02 01:34:02;;;;;;;10.27;6.70;;;30.50;99.90;;;;;;4192959;28;20048;-71
2022/09/02 01:36:09;;;;;;;9.15;5.82;;;30.50;99.90;;;;;;4193777;28;20051;-72
2022/09/02 01:38:16;;;;;;;9.52;5.72;;;30.60;99.90;;;;;;4192850;28;20090;-73
2022/09/02 01:40:22;;;;;;;8.38;5.70;;;30.60;99.90;;;;;;4208915;28;20071;-73
2022/09/02 01:42:29;;;;;;;6.68;5.45;;;30.60;99.90;;;;;;4210403;28;20051;-72
2022/09/02 01:44:42;;;;;;;5.53;5.03;;;30.60;99.90;;;;;;4209466;28;20040;-72
2022/09/02 01:46:48;;;;;;;7.28;5.93;;;30.70;99.90;;;;;;4225602;28;20100;-73
2022/09/02 01:48:55;;;;;;;9.90;5.70;;;30.70;99.90;;;;;;4208942;28;20040;-73
2022/09/02 01:51:03;;;;;;;7.90;5.43;;;30.80;99.90;;;;;;4208884;28;20048;-74
2022/09/02 01:53:08;;;;;;;39.50;7.30;;;30.80;99.90;;;;;;4229027;28;20040;-72
2022/09/02 01:55:15;;;;;;;21.83;6.45;;;30.90;99.90;;;;;;4213202;28;20285;-74
2022/09/02 01:57:25;;;;;;;9.13;5.78;;;30.90;99.90;;;;;;4229541;28;20078;-74
2022/09/02 01:59:29;;;;;;;5.85;5.22;;;30.90;99.90;;;;;;4211961;28;20067;-74
2022/09/02 02:01:35;;;;;;;10.00;5.07;;;30.90;99.90;;;;;;4213189;28;20576;-72
2022/09/02 02:03:39;;;;;;;13.18;5.45;;;30.90;99.90;;;;;;4209866;28;20398;-72
2022/09/02 02:05:44;;;;;;;5.95;5.03;;;31.00;99.90;;;;;;4213212;28;20043;-74
2022/09/02 02:07:53;;;;;;;8.95;5.47;;;30.90;99.90;;;;;;4213241;28;20093;-74
2022/09/02 02:10:03;;;;;;;7.05;5.32;;;31.00;99.90;;;;;;4209020;28;20044;-74
2022/09/02 02:12:08;;;;;;;6.63;5.43;;;31.00;99.90;;;;;;4177295;28;20057;-73
2022/09/02 02:14:13;;;;;;;6.15;5.10;;;31.10;99.90;;;;;;4213200;28;20036;-75
2022/09/02 02:16:28;;;;;;;8.63;4.47;;;31.10;99.90;;;;;;4243919;27;20756;-74
2022/09/02 02:18:36;;;;;;;5.72;4.40;;;31.10;99.90;;;;;;4210239;28;20082;-74
2022/09/02 02:20:49;;;;;;;6.15;4.95;;;31.20;99.90;;;;;;4213125;28;20150;-75
2022/09/02 02:22:57;;;;;;;5.47;4.97;;;31.30;99.90;;;;;;4193414;28;20051;-72
2022/09/02 02:25:04;;;;;;;6.30;5.00;;;31.30;99.90;;;;;;4210817;28;20129;-73
2022/09/02 02:27:10;;;;;;;6.20;5.00;;;31.40;99.90;;;;;;4212748;28;20028;-75
2022/09/02 02:29:17;;;;;;;5.82;4.47;;;31.40;99.90;;;;;;4211652;28;20039;-74
2022/09/02 02:31:25;;;;;;;5.70;4.80;;;31.50;99.90;;;;;;4211572;28;20123;-74
2022/09/02 02:33:30;;;;;;;6.53;4.55;;;31.60;99.90;;;;;;4211367;28;20085;-73
2022/09/02 02:35:40;;;;;;;5.43;4.70;;;31.60;99.90;;;;;;4243073;27;20035;-73
2022/09/02 02:37:48;;;;;;;10.82;4.80;;;31.60;99.90;;;;;;4211656;28;20058;-74
2022/09/02 02:39:54;;;;;;;5.82;5.22;;;31.70;99.90;;;;;;4211268;28;20044;-74
2022/09/02 02:42:03;;;;;;;6.28;4.55;;;31.70;99.90;;;;;;4211202;28;20127;-74
2022/09/02 02:44:09;;;;;;;8.05;5.15;;;31.70;99.90;;;;;;4212688;28;20047;-75
2022/09/02 02:46:15;;;;;;;7.63;4.72;;;31.80;99.90;;;;;;4211356;28;20434;-72
2022/09/02 02:48:23;;;;;;;9.40;4.93;;;31.80;99.90;;;;;;4226642;28;20042;-76
2022/09/02 02:50:30;;;;;;;5.28;4.70;;;31.80;99.90;;;;;;4228009;28;20112;-74
2022/09/02 02:52:36;;;;;;;6.15;4.72;;;31.90;99.90;;;;;;4209832;28;20479;-74
2022/09/02 02:54:42;;;;;;;6.90;4.82;;;32.00;99.90;;;;;;4211096;28;20051;-74
2022/09/02 02:56:47;;;;;;;7.25;5.13;;;32.10;99.90;;;;;;4210973;28;20043;-74
2022/09/02 02:58:53;;;;;;;7.43;5.07;;;32.10;99.90;;;;;;4212190;28;20032;-73
2022/09/02 03:00:59;;;;;;;5.63;4.88;;;32.00;99.90;;;;;;4212293;28;20101;-73
2022/09/02 03:03:09;;;;;;;6.88;4.57;;;32.00;99.90;;;;;;4210225;28;20042;-73
2022/09/02 03:05:14;;;;;;;5.03;4.38;;;32.00;99.90;;;;;;4209852;28;20071;-73
2022/09/02 03:07:21;;;;;;;5.50;4.38;;;32.00;99.90;;;;;;4210852;28;20530;-74
2022/09/02 03:09:27;;;;;;;7.68;4.47;;;32.00;99.90;;;;;;4211076;28;20036;-75
2022/09/02 03:11:33;;;;;;;6.05;4.13;;;32.10;99.90;;;;;;4193660;28;20040;-73
2022/09/02 03:13:37;;;;;;;4.70;4.30;;;32.10;99.90;;;;;;4212100;28;20056;-74
2022/09/02 03:15:42;;;;;;;6.90;4.05;;;32.00;99.90;;;;;;4193646;28;20056;-74
2022/09/02 03:17:47;;;;;;;5.38;4.50;;;32.10;99.80;;;;;;4210876;28;20048;-72
2022/09/02 03:19:57;;;;;;;6.43;4.25;;;32.10;99.50;;;;;;4210114;28;20040;-73
2022/09/02 03:22:09;;;;;;;4.57;3.97;;;32.20;99.60;;;;;;4207277;28;20056;-75
2022/09/02 03:24:15;;;;;;;6.03;4.05;;;32.30;99.90;;;;;;4210620;28;20121;-74
2022/09/02 03:26:22;;;;;;;5.15;3.90;;;32.40;99.80;;;;;;4207295;28;20402;-73
2022/09/02 03:28:28;;;;;;;7.75;4.22;;;32.50;99.70;;;;;;4205493;28;20059;-74
2022/09/02 03:30:36;;;;;;;5.70;4.20;;;32.60;99.90;;;;;;4209467;28;20138;-74
2022/09/02 03:32:44;;;;;;;4.90;4.40;;;32.60;99.80;;;;;;4193039;28;20141;-74
2022/09/02 03:34:51;;;;;;;7.10;4.45;;;32.60;99.90;;;;;;4197751;28;20091;-74
2022/09/02 03:36:56;;;;;;;6.10;4.03;;;32.60;99.50;;;;;;4218339;28;20588;-74
2022/09/02 03:39:10;;;;;;;5.47;4.50;;;32.60;99.10;;;;;;4214989;28;20056;-73
2022/09/02 03:41:30;;;;;;;5.25;4.10;;;32.70;99.00;;;;;;4208075;28;20060;-74
2022/09/02 03:43:34;;;;;;;5.70;4.18;;;32.80;99.00;;;;;;4198857;28;20118;-74
2022/09/02 03:45:41;;;;;;;6.05;4.00;;;32.80;99.20;;;;;;4210981;28;20045;-75
2022/09/02 03:47:52;;;;;;;6.18;4.80;;;32.90;99.50;;;;;;4210987;28;20526;-74
2022/09/02 03:50:02;;;;;;;4.55;4.10;;;32.80;99.00;;;;;;4210562;28;20064;-75
2022/09/02 03:52:09;;;;;;;5.30;3.92;;;32.90;98.60;;;;;;4211882;28;20044;-75
2022/09/02 03:54:16;;;;;;;5.28;4.07;;;33.00;98.30;;;;;;4210542;28;20055;-74
2022/09/02 03:56:21;;;;;;;5.60;3.92;;;33.10;98.10;;;;;;4175806;28;20055;-75
2022/09/02 03:58:28;;;;;;;6.78;3.63;;;33.10;97.90;;;;;;4211827;28;20078;-74
2022/09/02 04:00:37;;;;;;;5.75;4.32;;;33.20;98.00;;;;;;4210823;28;20062;-73
2022/09/02 04:02:46;;;;;;;4.80;4.20;;;33.20;97.20;;;;;;4194643;28;20041;-74
2022/09/02 04:04:54;;;;;;;4.55;4.00;;;33.30;97.30;;;;;;4210105;28;20135;-74
2022/09/02 04:07:01;;;;;;;4.70;3.58;;;33.40;97.30;;;;;;4205176;28;20451;-75
2022/09/02 04:09:06;;;;;;;5.15;4.15;;;33.40;97.20;;;;;;4204272;28;20405;-76
2022/09/02 04:11:17;;;;;;;4.57;4.10;;;33.40;96.80;;;;;;4192755;28;20040;-74
2022/09/02 04:13:27;;;;;;;5.28;4.40;;;33.30;96.90;;;;;;4210179;28;20395;-76
2022/09/02 04:15:31;;;;;;;7.70;4.53;;;33.30;96.80;;;;;;4209324;28;20081;-75
2022/09/02 04:17:39;;;;;;;5.03;4.32;;;33.20;96.00;;;;;;4227635;28;20047;-77
2022/09/02 04:19:48;;;;;;;4.50;4.10;;;33.20;96.70;;;;;;4210997;28;20052;-76
2022/09/02 04:21:52;;;;;;;5.95;4.10;;;33.20;97.20;;;;;;4227207;28;20056;-74
2022/09/02 04:24:05;;;;;;;4.97;4.25;;;33.30;97.00;;;;;;4211534;28;20086;-74
2022/09/02 04:26:13;;;;;;;6.28;4.35;;;33.30;97.20;;;;;;4196393;28;20124;-74
2022/09/02 04:28:17;;;;;;;7.65;4.30;;;33.20;97.00;;;;;;4208305;28;20135;-73
2022/09/02 04:30:24;;;;;;;5.72;3.88;;;33.30;97.00;;;;;;4209610;28;20036;-77
2022/09/02 04:32:31;;;;;;;5.25;3.70;;;33.40;96.80;;;;;;4210052;28;20051;-75
2022/09/02 04:34:44;;;;;;;4.32;3.92;;;33.40;96.20;;;;;;4211683;28;20119;-76
2022/09/02 04:36:53;;;;;;;6.30;4.20;;;33.40;95.80;;;;;;4210374;28;20593;-77
2022/09/02 04:39:00;;;;;;;4.30;3.67;;;33.40;95.30;;;;;;4210013;28;20448;-76
2022/09/02 04:41:17;;;;;;;4.90;4.10;;;33.20;95.50;;;;;;4209839;28;20040;-76
2022/09/02 04:43:22;;;;;;;4.32;3.92;;;33.30;95.00;;;;;;4209765;28;20107;-77
2022/09/02 04:45:29;;;;;;;4.38;3.45;;;33.50;95.40;;;;;;4210221;28;20437;-76
2022/09/02 04:47:34;;;;;;;5.80;3.33;;;33.60;95.00;;;;;;4211626;28;20097;-75
2022/09/02 04:49:43;;;;;;;4.95;3.53;;;33.60;95.20;;;;;;4161041;28;20053;-73
2022/09/02 04:51:52;;;;;;;4.40;3.90;;;33.70;95.00;;;;;;4209853;28;20094;-73
2022/09/02 04:53:59;;;;;;;3.90;3.47;;;33.80;95.00;;;;;;4210134;28;20068;-74
2022/09/02 04:56:10;;;;;;;4.85;3.67;;;33.90;94.60;;;;;;4159415;28;20146;-74
2022/09/02 04:58:16;;;;;;;5.28;3.78;;;33.90;94.80;;;;;;4193346;28;20090;-74
2022/09/02 05:00:23;;;;;;;5.22;3.95;;;34.00;94.40;;;;;;4209714;28;20055;-74
2022/09/02 05:02:31;;;;;;;4.00;3.30;;;34.10;94.40;;;;;;4191540;28;20494;-74
2022/09/02 05:04:38;;;;;;;4.70;3.88;;;34.20;94.20;;;;;;4209952;28;20051;-75
2022/09/02 05:06:52;;;;;;;5.05;3.53;;;34.30;94.00;;;;;;4210611;28;20107;-75
2022/09/02 05:09:00;;;;;;;5.97;3.70;;;34.40;93.80;;;;;;4211373;28;20545;-74
2022/09/02 05:11:12;;;;;;;3.75;3.35;;;34.50;93.90;;;;;;4226441;28;20051;-73
2022/09/02 05:13:18;;;;;;;4.95;3.33;;;34.50;93.00;;;;;;4209429;28;20468;-75
2022/09/02 05:15:27;;;;;;;3.20;2.90;;;34.50;93.20;;;;;;4225588;28;20579;-74
2022/09/02 05:17:41;;;;;;;3.92;3.38;;;34.60;93.20;;;;;;4209384;28;20052;-74
2022/09/02 05:19:55;;;;;;;3.88;3.03;;;34.80;93.00;;;;;;4193691;28;20056;-75
2022/09/02 05:22:03;;;;;;;4.55;3.15;;;34.70;93.10;;;;;;4193220;28;20048;-75
2022/09/02 05:24:16;;;;;;;3.70;3.33;;;34.70;93.10;;;;;;4207116;28;20105;-75
2022/09/02 05:26:25;;;;;;;4.38;3.60;;;34.80;92.70;;;;;;4206238;28;20044;-75
2022/09/02 05:28:33;;;;;;;3.70;3.30;;;34.80;92.60;;;;;;4207159;28;20039;-74
2022/09/02 05:30:40;;;;;;;5.35;3.72;;;34.80;92.50;;;;;;4208325;28;20084;-75
2022/09/02 05:32:46;;;;;;;5.90;3.28;;;34.90;92.00;;;;;;4208928;28;20510;-76
2022/09/02 05:34:55;;;;;;;6.05;3.58;;;34.80;92.20;;;;;;4208783;28;20048;-76
2022/09/02 05:37:18;;;;;;;5.93;3.95;;;34.80;91.80;;;;;;4207568;28;20048;-75
2022/09/02 05:39:26;;;;;;;7.28;3.47;;;34.80;91.90;;;;;;4207546;28;20110;-73
2022/09/02 05:41:34;;;;;;;5.57;3.50;;;34.80;92.40;;;;;;4208668;28;20063;-73
2022/09/02 05:43:43;;;;;;;3.97;3.50;;;34.70;91.10;;;;;;4207890;28;20044;-73
2022/09/02 05:45:48;;;;;;;5.80;3.42;;;34.40;92.20;;;;;;4225086;28;20097;-72
2022/09/02 05:47:58;;;;;;;7.05;3.45;;;34.40;92.30;;;;;;4208685;28;20111;-73
2022/09/02 05:50:05;;;;;;;4.47;3.38;;;34.50;92.70;;;;;;4208633;28;20093;-76
2022/09/02 05:52:12;;;;;;;4.65;3.72;;;34.60;92.30;;;;;;4210938;28;20495;-75
2022/09/02 05:54:28;;;;;;;4.85;3.50;;;34.70;91.90;;;;;;4209982;28;20048;-76
2022/09/02 05:56:40;;;;;;;4.78;3.70;;;34.70;92.20;;;;;;4208468;28;20056;-75
2022/09/02 05:58:49;;;;;;;4.35;3.83;;;34.80;92.50;;;;;;4193349;28;20052;-75
2022/09/02 06:00:56;;;;;;;5.40;4.00;;;35.00;92.40;;;;;;4208233;28;20117;-75
2022/09/02 06:03:03;;;;;;;5.93;3.58;;;34.90;92.40;;;;;;4225365;28;20585;-75
2022/09/02 06:05:11;;;;;;;4.10;3.70;;;34.90;92.20;;;;;;4209595;28;20044;-74
2022/09/02 06:07:23;;;;;;;4.57;3.60;;;34.90;92.40;;;;;;4225365;28;20040;-75
2022/09/02 06:09:31;;;;;;;4.53;3.58;;;34.90;92.30;;;;;;4208257;28;20127;-74
2022/09/02 06:11:44;;;;;;;4.57;3.33;;;35.00;92.30;;;;;;4224790;28;20051;-74
2022/09/02 06:13:54;;;;;;;6.88;3.20;;;35.00;92.30;;;;;;4208490;28;20093;-73
2022/09/02 06:16:01;;;;;;;4.95;3.85;;;35.10;92.40;;;;;;4207510;28;20861;-73
2022/09/02 06:18:08;;;;;;;5.50;3.63;;;35.10;92.50;;;;;;4224760;28;20139;-73
2022/09/02 06:20:20;;;;;;;4.00;3.35;;;35.00;92.70;;;;;;4208174;28;20066;-74
2022/09/02 06:22:27;;;;;;;4.47;3.50;;;35.10;92.50;;;;;;4207976;28;20105;-74
2022/09/02 06:24:40;;;;;;;4.55;3.53;;;35.20;92.30;;;;;;4206907;28;20050;-73
2022/09/02 06:26:56;;;;;;;5.25;3.65;;;35.20;92.30;;;;;;4191060;28;20566;-73
2022/09/02 06:29:12;;;;;;;4.18;3.58;;;35.30;92.20;;;;;;4198446;28;20044;-73
2022/09/02 06:31:20;;;;;;;6.15;3.95;;;35.50;92.00;;;;;;4207929;28;20150;-73
2022/09/02 06:33:28;;;;;;;3.97;3.58;;;35.40;92.10;;;;;;4207543;28;20513;-73
2022/09/02 06:35:39;;;;;;;7.47;4.15;;;35.20;92.30;;;;;;4200941;28;20056;-73
2022/09/02 06:37:46;;;;;;;5.20;4.05;;;35.00;92.40;;;;;;4218061;28;20437;-73
2022/09/02 06:39:51;;;;;;;4.80;3.85;;;34.80;92.60;;;;;;4204395;28;20044;-73
2022/09/02 06:42:01;;;;;;;4.75;3.88;;;34.60;92.60;;;;;;4210945;28;20060;-74
2022/09/02 06:44:18;;;;;;;5.63;3.60;;;34.70;92.30;;;;;;4227649;28;20050;-74
2022/09/02 06:46:27;;;;;;;5.38;4.00;;;34.70;92.40;;;;;;4212007;28;20093;-73
2022/09/02 06:48:36;;;;;;;4.28;3.65;;;34.80;92.30;;;;;;4211374;28;20051;-73
2022/09/02 06:50:44;;;;;;;4.85;3.45;;;34.80;92.00;;;;;;4211489;28;20042;-73
2022/09/02 06:52:51;;;;;;;4.00;3.35;;;35.00;91.90;;;;;;4159947;28;20041;-72
2022/09/02 06:54:58;;;;;;;3.92;3.28;;;35.10;91.80;;;;;;4210742;28;20059;-74
2022/09/02 06:57:03;;;;;;;5.80;3.50;;;35.10;91.60;;;;;;4210838;28;20036;-73
2022/09/02 06:59:15;;;;;;;3.47;3.03;;;35.00;91.50;;;;;;4161816;28;20049;-72
2022/09/02 07:01:30;;;;;;;3.70;3.38;;;35.00;91.50;;;;;;4210458;28;20101;-72
2022/09/02 07:06:14;;;;;;;5.22;3.95;;;34.60;92.00;;;;;;4211912;28;20096;-73
2022/09/02 07:08:22;;;;;;;4.00;3.38;;;34.50;92.10;;;;;;4210682;28;20109;-72
2022/09/02 07:10:27;;;;;;;4.35;3.72;;;34.60;92.50;;;;;;4210261;28;20044;-72
2022/09/02 07:12:35;;;;;;;5.38;3.38;;;34.90;92.30;;;;;;4210775;28;20126;-72
2022/09/02 07:14:45;;;;;;;3.90;3.60;;;35.10;92.00;;;;;;4210411;28;20142;-72
2022/09/02 07:16:58;;;;;;;6.20;3.60;;;34.90;91.80;;;;;;4227383;28;20825;-72
2022/09/02 07:19:07;;;;;;;5.45;3.50;;;35.10;91.20;;;;;;4210147;28;20055;-73
2022/09/02 07:21:20;;;;;;;4.20;3.78;;;35.20;91.60;;;;;;4227414;28;20048;-73
2022/09/02 07:23:24;;;;;;;3.85;3.42;;;35.20;91.70;;;;;;4210368;28;20040;-74
2022/09/02 07:25:32;;;;;;;4.03;3.60;;;35.10;91.40;;;;;;4209970;28;20044;-73
2022/09/02 07:27:38;;;;;;;5.03;3.80;;;35.00;91.00;;;;;;4211897;28;20050;-73
2022/09/02 07:29:47;;;;;;;4.05;3.65;;;34.90;91.00;;;;;;4211556;28;20055;-73
2022/09/02 07:32:05;;;;;;;3.92;3.50;;;34.80;91.00;;;;;;4210376;28;20052;-73
2022/09/02 07:34:13;;;;;;;3.63;3.30;;;35.00;91.00;;;;;;4210248;28;20523;-71
2022/09/02 07:36:20;;;;;;;4.80;3.45;;;35.20;90.90;;;;;;4211289;28;20048;-72
2022/09/02 07:38:26;;;;;;;6.70;3.83;;;35.10;90.20;;;;;;4193861;28;20049;-72
2022/09/02 07:40:35;;;;;;;6.22;3.60;;;35.00;90.90;;;;;;4209979;28;20051;-73
2022/09/02 07:42:39;;;;;;;6.65;4.03;;;35.00;91.00;;;;;;4210104;28;20047;-73
2022/09/02 07:44:47;;;;;;;6.35;3.80;;;34.80;91.20;;;;;;4209872;28;20051;-73
2022/09/02 07:46:54;;;;;;;4.00;3.60;;;34.70;90.90;;;;;;4211067;28;20040;-72
2022/09/02 07:49:00;;;;;;;4.85;3.67;;;34.60;91.10;;;;;;4226936;28;20130;-72
2022/09/02 07:51:12;;;;;;;5.53;3.75;;;34.60;90.70;;;;;;4226714;28;20044;-73
2022/09/02 07:53:19;;;;;;;5.60;3.75;;;34.60;90.70;;;;;;4209928;28;20086;-72
2022/09/02 07:55:24;;;;;;;8.07;3.85;;;34.70;90.80;;;;;;4226552;28;20048;-71
2022/09/02 07:57:31;;;;;;;6.55;3.80;;;34.90;90.60;;;;;;4210095;28;20047;-73
2022/09/02 07:59:38;;;;;;;5.63;3.40;;;35.00;90.70;;;;;;4209563;28;20056;-73
2022/09/02 08:01:43;;;;;;;5.03;3.90;;;35.10;90.50;;;;;;4209700;28;20056;-73
2022/09/02 08:03:51;;;;;;;4.20;3.80;;;35.00;90.60;;;;;;4210920;28;20048;-74
2022/09/02 08:06:02;;;;;;;5.97;4.32;;;34.80;90.90;;;;;;4193909;28;20044;-74
2022/09/02 08:08:07;;;;;;;6.65;4.40;;;34.60;90.90;;;;;;4226473;28;20895;-74
2022/09/02 08:10:14;;;;;;;5.97;3.92;;;34.50;91.20;;;;;;4210576;28;20070;-73
2022/09/02 08:12:21;;;;;;;4.88;3.65;;;34.20;91.20;;;;;;4210891;28;20048;-73
2022/09/02 08:14:28;;;;;;;6.50;4.05;;;34.40;91.20;;;;;;4210487;28;20528;-73
2022/09/02 08:16:36;;;;;;;4.10;3.60;;;34.60;91.10;;;;;;4209457;28;20075;-73
2022/09/02 08:18:44;;;;;;;4.13;3.70;;;34.50;90.80;;;;;;4210956;28;20055;-73
2022/09/02 08:20:48;;;;;;;6.35;4.05;;;34.60;91.00;;;;;;4210888;28;20784;-73
2022/09/02 08:22:55;;;;;;;5.03;3.92;;;34.60;90.50;;;;;;4209360;28;20130;-74
2022/09/02 08:25:17;;;;;;;5.55;3.65;;;34.60;90.60;;;;;;4210403;28;20395;-72
2022/09/02 08:27:21;;;;;;;4.00;3.38;;;34.40;91.30;;;;;;4209352;28;20055;-73
2022/09/02 08:29:26;;;;;;;5.65;3.85;;;34.40;91.20;;;;;;4210614;28;20040;-72
2022/09/02 08:31:36;;;;;;;4.93;3.70;;;34.60;91.30;;;;;;4210582;28;20072;-72
2022/09/02 08:33:58;;;;;;;4.28;3.65;;;34.70;91.00;;;;;;4210633;28;20044;-71
2022/09/02 08:36:14;;;;;;;5.82;3.80;;;34.80;90.90;;;;;;4210355;28;20059;-73
2022/09/02 08:38:22;;;;;;;4.07;3.63;;;34.80;90.90;;;;;;4193900;28;20037;-73
2022/09/02 08:40:45;;;;;;;6.32;4.07;;;34.80;90.80;;;;;;4209736;28;20577;-73
2022/09/02 08:42:56;;;;;;;4.25;3.83;;;34.80;90.50;;;;;;4191514;28;20055;-73
2022/09/02 08:45:18;;;;;;;5.53;3.72;;;34.70;90.60;;;;;;4210241;28;20070;-73
2022/09/02 08:47:25;;;;;;;5.95;3.80;;;34.70;90.50;;;;;;4225428;28;20052;-73
2022/09/02 08:49:34;;;;;;;4.82;3.65;;;34.80;90.20;;;;;;4208839;28;20869;-73
2022/09/02 08:51:50;;;;;;;4.22;3.83;;;34.70;90.30;;;;;;4210562;28;20111;-77
2022/09/02 08:54:09;;;;;;;4.20;3.35;;;34.80;90.00;;;;;;4210689;28;20093;-76
2022/09/02 08:56:16;;;;;;;6.13;3.88;;;34.70;89.60;;;;;;4210581;28;20047;-76
2022/09/02 08:58:27;;;;;;;4.97;3.95;;;34.70;90.10;;;;;;4210281;28;20062;-76
2022/09/02 09:00:54;;;;;;;4.88;4.07;;;34.80;90.00;;;;;;4211290;28;20036;-77
2022/09/02 09:03:22;;;;;;;6.32;4.03;;;34.90;90.00;;;;;;4210824;28;20063;-77
2022/09/02 09:05:57;;;;;;;3.75;3.38;;;35.00;89.50;;;;;;4210081;28;20040;-77
2022/09/02 09:08:32;;;;;;;5.55;3.63;;;35.00;89.80;;;;;;4209414;28;20052;-77
2022/09/02 09:11:03;;;;;;;4.50;3.63;;;35.00;89.30;;;;;;4207787;28;20048;-78
2022/09/02 09:13:33;;;;;;;4.40;3.97;;;34.90;88.60;;;;;;4209010;28;20046;-75
2022/09/02 09:16:08;;;;;;;4.25;3.65;;;34.90;89.40;;;;;;4208693;28;20070;-75
2022/09/02 09:18:16;;;;;;;6.93;4.00;;;34.90;89.20;;;;;;4189689;28;20056;-75
2022/09/02 09:20:25;;;;;;;5.07;3.72;;;34.90;89.30;;;;;;4207867;28;20054;-76
2022/09/02 09:22:37;;;;;;;5.32;4.05;;;35.00;90.00;;;;;;4205710;28;20131;-76
2022/09/02 09:24:48;;;;;;;6.40;4.30;;;35.00;90.00;;;;;;4206335;28;20083;-77
2022/09/02 09:26:53;;;;;;;7.32;4.47;;;35.00;90.00;;;;;;4205973;28;20074;-76
2022/09/02 09:29:00;;;;;;;8.32;4.30;;;35.00;90.20;;;;;;4208403;28;20058;-77
2022/09/02 09:31:17;;;;;;;10.40;4.55;;;35.00;90.40;;;;;;4207047;28;20047;-77
2022/09/02 09:33:29;;;;;;;5.00;4.13;;;35.00;90.50;;;;;;4205564;28;20159;-76
2022/09/02 09:35:47;;;;;;;8.73;4.10;;;35.00;90.40;;;;;;4202343;28;20075;-72
2022/09/02 09:37:58;;;;;;;13.18;4.68;;;35.00;90.40;;;;;;4205608;28;20048;-70
2022/09/02 09:40:26;;;;;;;9.35;4.40;;;35.00;90.60;;;;;;4204651;28;20611;-73
2022/09/02 09:42:34;;;;;;;5.13;3.90;;;35.00;90.50;;;;;;4204245;28;20105;-72
2022/09/02 09:44:48;;;;;;;6.63;4.35;;;35.00;90.40;;;;;;4206930;28;20036;-73
2022/09/02 09:47:13;;;;;;;5.28;4.28;;;35.00;90.60;;;;;;4208973;28;20130;-73
2022/09/02 09:49:26;;;;;;;4.18;3.78;;;35.00;90.60;;;;;;4208731;28;20040;-74
2022/09/02 09:51:32;;;;;;;;;;;35.00;90.20;;;;;;4208947;28;20048;-73
2022/09/02 09:53:52;;;;;;;5.68;4.38;;;35.10;90.30;;;;;;4207704;28;19927;-74
2022/09/02 09:56:04;;;;;;;7.30;3.83;;;35.10;90.50;;;;;;4208030;28;20040;-74
2022/09/02 09:58:10;;;;;;;7.07;4.40;;;35.00;90.20;;;;;;4207696;28;20036;-73
2022/09/02 10:00:30;;;;;;;7.15;3.95;;;35.10;90.30;;;;;;4206304;28;20052;-74
2022/09/02 10:02:44;;;;;;;6.43;4.22;;;35.00;90.20;;;;;;4206399;28;20145;-73
2022/09/02 10:05:08;;;;;;;13.48;4.35;;;35.00;90.30;;;;;;4208098;28;20044;-74
2022/09/02 10:07:13;;;;;;;4.10;3.53;;;35.00;90.70;;;;;;4209143;28;20711;-74
2022/09/02 10:09:45;;;;;;;7.60;4.80;;;35.00;90.90;;;;;;4208019;28;20032;-73
2022/09/02 10:12:07;;;;;;;7.55;5.00;;;34.90;90.80;;;;;;4207258;28;20048;-73
2022/09/02 10:14:12;;;;;;;8.75;5.75;;;34.80;91.10;;;;;;4191206;28;20067;-72
2022/09/02 10:16:49;;;;;;;8.32;5.45;;;34.80;91.20;;;;;;4208710;28;20043;-72
2022/09/02 10:18:55;;;;;;;9.50;5.47;;;34.70;91.40;;;;;;4210917;28;20075;-73
2022/09/02 10:21:26;;;;;;;6.75;4.93;;;34.70;91.30;;;;;;4210919;28;20059;-73
2022/09/02 10:23:51;;;;;;;9.20;4.93;;;34.60;91.30;;;;;;4210722;28;20071;-73
2022/09/02 10:26:24;;;;;;;5.47;4.22;;;34.60;91.80;;;;;;4209262;28;20102;-72
2022/09/02 10:29:05;;;;;;;6.25;4.30;;;34.60;91.80;;;;;;4210794;28;20028;-75
2022/09/02 10:31:51;;;;;;;7.50;4.30;;;34.50;91.80;;;;;;4210583;28;20040;-73
2022/09/02 10:34:27;;;;;;;6.05;5.05;;;34.40;91.70;;;;;;4210322;28;20052;-72
2022/09/02 10:37:04;;;;;;;5.75;4.13;;;34.40;92.10;;;;;;4210196;28;20058;-71
2022/09/02 10:39:29;;;;;;;11.77;4.70;;;34.30;92.20;;;;;;4208876;28;20052;-73
2022/09/02 10:41:47;;;;;;;8.52;4.60;;;34.30;92.30;;;;;;4193741;28;20045;-73
2022/09/02 10:44:23;;;;;;;6.90;4.75;;;34.20;92.40;;;;;;4210598;28;20056;-74
2022/09/02 10:46:29;;;;;;;7.72;4.93;;;34.20;92.60;;;;;;4210393;28;20048;-72
2022/09/02 10:49:09;;;;;;;12.40;5.15;;;34.20;92.80;;;;;;4210788;28;20056;-72
2022/09/02 10:51:46;;;;;;;12.88;4.32;;;34.20;93.00;;;;;;4210148;28;20590;-72
2022/09/02 10:54:09;;;;;;;11.00;4.93;;;34.10;93.10;;;;;;4209351;28;20051;-72
2022/09/02 10:56:20;;;;;;;18.85;5.45;;;34.10;92.90;;;;;;4225441;28;20036;-72
2022/09/02 10:58:42;;;;;;;29.92;5.72;;;34.00;93.20;;;;;;4212226;28;20040;-72
2022/09/02 11:00:51;;;;;;;16.38;5.55;;;33.90;93.60;;;;;;4227447;28;20074;-72
2022/09/02 11:03:28;;;;;;;11.48;6.55;;;33.80;94.00;;;;;;4210719;28;20122;-71
2022/09/02 11:05:52;;;;;;;12.35;7.25;;;33.80;94.00;;;;;;4192552;28;20049;-72
2022/09/02 11:08:09;;;;;;;17.85;8.70;;;33.70;94.00;;;;;;4211104;28;20732;-69
2022/09/02 11:10:39;;;;;;;15.82;8.95;;;33.60;94.00;;;;;;4210314;28;20032;-74
2022/09/02 11:13:35;;;;;;;9.52;7.70;;;33.60;94.20;;;;;;4209186;28;20570;-72
2022/09/02 11:16:03;;;;;;;10.55;7.78;;;33.50;94.20;;;;;;4209017;28;20083;-72
2022/09/02 11:18:42;;;;;;;14.48;7.15;;;33.50;94.40;;;;;;4192997;28;20052;-73
2022/09/02 11:21:13;;;;;;;11.47;7.50;;;33.50;94.60;;;;;;4206820;28;20124;-73
2022/09/02 11:23:38;;;;;;;10.07;7.03;;;33.40;94.60;;;;;;4208581;28;20305;-74
2022/09/02 11:26:04;;;;;;;7.05;6.10;;;33.30;94.80;;;;;;4156024;28;20053;-70
2022/09/02 11:28:32;;;;;;;8.10;5.43;;;33.10;94.50;;;;;;4209636;28;20047;-71